XNO23M EGCC-LIRP
Flight info
| Callsign | XNO23M |
|---|---|
| Flight time | 2h 9m |
| Altitude | 35000 |
| Route | SANBA N859 HON UL612 OGULO DCT OKASI DCT OKEKO DCT MOU DCT MADIV DCT MOKIP DCT TUFTA DCT GEVEA DCT MOBLO DCT LURAG DCT OBUXA DCT UNITA DCT TIDKA/N0387F190 L50 KONER |
| Aircraft | A321/M-SDE3FGHIRWY/LB1 |
Departure
| Time | 2026-04-24 14:04 |
|---|---|
| Airport | Manchester Airport (EGCC) |
Arrival
| Time | 2026-04-24 16:13 |
|---|---|
| Airport | Pisa International Airport (LIRP) |
| Time | Latitude | Longitude | Altitude | Speed | Heading |
|---|---|---|---|---|---|
| 2026-04-24 13:33 | 53.36010 | -2.26927 | 256 ft | 0 kts | 313° |
| 2026-04-24 13:55 | 53.35995 | -2.26901 | 255 ft | 3 kts | 314° |
| 2026-04-24 13:55 | 53.35980 | -2.26875 | 255 ft | 4 kts | 296° |
| 2026-04-24 13:56 | 53.35979 | -2.26844 | 255 ft | 2 kts | 230° |
| 2026-04-24 13:56 | 53.35995 | -2.26813 | 255 ft | 1 kts | 230° |
| 2026-04-24 13:56 | 53.35995 | -2.26812 | 255 ft | 0 kts | 230° |
| 2026-04-24 13:58 | 53.35993 | -2.26817 | 255 ft | 2 kts | 230° |
| 2026-04-24 13:59 | 53.35973 | -2.26838 | 255 ft | 4 kts | 198° |
| 2026-04-24 13:59 | 53.35939 | -2.26835 | 255 ft | 8 kts | 172° |
| 2026-04-24 13:59 | 53.35876 | -2.26892 | 256 ft | 12 kts | 229° |
| 2026-04-24 13:59 | 53.35826 | -2.27009 | 255 ft | 12 kts | 237° |
| 2026-04-24 14:00 | 53.35778 | -2.27126 | 255 ft | 12 kts | 233° |
| 2026-04-24 14:00 | 53.35725 | -2.27190 | 255 ft | 8 kts | 182° |
| 2026-04-24 14:00 | 53.35711 | -2.27184 | 255 ft | 0 kts | 163° |
| 2026-04-24 14:00 | 53.35707 | -2.27183 | 255 ft | 1 kts | 163° |
| 2026-04-24 14:01 | 53.35690 | -2.27169 | 256 ft | 7 kts | 150° |
| 2026-04-24 14:01 | 53.35642 | -2.27109 | 257 ft | 9 kts | 142° |
| 2026-04-24 14:01 | 53.35572 | -2.27016 | 256 ft | 18 kts | 141° |
| 2026-04-24 14:01 | 53.35468 | -2.26898 | 254 ft | 17 kts | 175° |
| 2026-04-24 14:02 | 53.35378 | -2.27016 | 247 ft | 17 kts | 230° |
| 2026-04-24 14:02 | 53.35304 | -2.27161 | 242 ft | 15 kts | 223° |
| 2026-04-24 14:02 | 53.35194 | -2.27233 | 232 ft | 14 kts | 184° |
| 2026-04-24 14:02 | 53.35111 | -2.27258 | 228 ft | 13 kts | 192° |
| 2026-04-24 14:03 | 53.35026 | -2.27301 | 226 ft | 13 kts | 209° |
| 2026-04-24 14:03 | 53.34961 | -2.27420 | 225 ft | 14 kts | 231° |
| 2026-04-24 14:03 | 53.34846 | -2.27662 | 222 ft | 57 kts | 231° |
| 2026-04-24 14:03 | 53.34441 | -2.28495 | 226 ft | 123 kts | 231° |
| 2026-04-24 14:04 | 53.33795 | -2.29825 | 238 ft | 172 kts | 229° |
| 2026-04-24 14:04 | 53.33011 | -2.31418 | 817 ft | 174 kts | 231° |
| 2026-04-24 14:04 | 53.32259 | -2.32992 | 1482 ft | 177 kts | 230° |
| 2026-04-24 14:04 | 53.31689 | -2.34848 | 2051 ft | 188 kts | 256° |
| 2026-04-24 14:05 | 53.31836 | -2.37153 | 2101 ft | 217 kts | 294° |
| 2026-04-24 14:05 | 53.32694 | -2.39439 | 2202 ft | 247 kts | 307° |
| 2026-04-24 14:05 | 53.33591 | -2.41998 | 2665 ft | 262 kts | 287° |
| 2026-04-24 14:05 | 53.33608 | -2.45034 | 3322 ft | 267 kts | 250° |
| 2026-04-24 14:06 | 53.32548 | -2.47539 | 3992 ft | 269 kts | 214° |
| 2026-04-24 14:06 | 53.30811 | -2.48578 | 4714 ft | 269 kts | 180° |
| 2026-04-24 14:06 | 53.29001 | -2.47849 | 5401 ft | 271 kts | 155° |
| 2026-04-24 14:06 | 53.27315 | -2.46484 | 6302 ft | 268 kts | 147° |
| 2026-04-24 14:07 | 53.25869 | -2.44479 | 6943 ft | 274 kts | 135° |
| 2026-04-24 14:07 | 53.24431 | -2.42367 | 7640 ft | 277 kts | 145° |
| 2026-04-24 14:07 | 53.22779 | -2.40696 | 8330 ft | 280 kts | 152° |
| 2026-04-24 14:07 | 53.21034 | -2.39217 | 9014 ft | 283 kts | 154° |
| 2026-04-24 14:08 | 53.19241 | -2.37782 | 9699 ft | 287 kts | 154° |
| 2026-04-24 14:08 | 53.17431 | -2.36325 | 10353 ft | 291 kts | 154° |
| 2026-04-24 14:08 | 53.15573 | -2.34794 | 10684 ft | 308 kts | 154° |
| 2026-04-24 14:08 | 53.13593 | -2.33125 | 10815 ft | 330 kts | 153° |
| 2026-04-24 14:09 | 53.11486 | -2.31317 | 10939 ft | 351 kts | 153° |
| 2026-04-24 14:09 | 53.09260 | -2.29387 | 11061 ft | 370 kts | 153° |
| 2026-04-24 14:09 | 53.06937 | -2.27357 | 11381 ft | 382 kts | 152° |
| 2026-04-24 14:09 | 53.04577 | -2.25291 | 11935 ft | 386 kts | 152° |
| 2026-04-24 14:10 | 53.02996 | -2.23907 | 12324 ft | 388 kts | 152° |
| 2026-04-24 14:10 | 52.99784 | -2.21100 | 13165 ft | 392 kts | 153° |
| 2026-04-24 14:10 | 52.97358 | -2.18987 | 13820 ft | 394 kts | 152° |
| 2026-04-24 14:10 | 52.94927 | -2.16877 | 14504 ft | 395 kts | 152° |
| 2026-04-24 14:11 | 52.92486 | -2.14764 | 15094 ft | 397 kts | 152° |
| 2026-04-24 14:11 | 52.90031 | -2.12643 | 15685 ft | 399 kts | 152° |
| 2026-04-24 14:11 | 52.85104 | -2.08405 | 16819 ft | 405 kts | 152° |
| 2026-04-24 14:12 | 52.82557 | -2.06218 | 17344 ft | 408 kts | 152° |
| 2026-04-24 14:12 | 52.80026 | -2.04048 | 17863 ft | 412 kts | 152° |
| 2026-04-24 14:12 | 52.77475 | -2.01863 | 18379 ft | 414 kts | 152° |
| 2026-04-24 14:12 | 52.74915 | -1.99668 | 18878 ft | 416 kts | 153° |
| 2026-04-24 14:13 | 52.72374 | -1.97488 | 19331 ft | 418 kts | 153° |
| 2026-04-24 14:13 | 52.69756 | -1.95247 | 19784 ft | 420 kts | 153° |
| 2026-04-24 14:13 | 52.67150 | -1.93019 | 20179 ft | 423 kts | 153° |
| 2026-04-24 14:13 | 52.64527 | -1.90775 | 20610 ft | 426 kts | 153° |
| 2026-04-24 14:14 | 52.61889 | -1.88528 | 21048 ft | 428 kts | 153° |
| 2026-04-24 14:14 | 52.59230 | -1.86275 | 21505 ft | 430 kts | 153° |
| 2026-04-24 14:14 | 52.53877 | -1.81739 | 22371 ft | 434 kts | 152° |
| 2026-04-24 14:15 | 52.51188 | -1.79462 | 22754 ft | 438 kts | 152° |
| 2026-04-24 14:15 | 52.48465 | -1.77160 | 23049 ft | 443 kts | 153° |
| 2026-04-24 14:15 | 52.45719 | -1.74839 | 23400 ft | 446 kts | 154° |
| 2026-04-24 14:15 | 52.42950 | -1.72500 | 23763 ft | 449 kts | 153° |
| 2026-04-24 14:16 | 52.40162 | -1.70149 | 24072 ft | 453 kts | 154° |
| 2026-04-24 14:16 | 52.37349 | -1.67786 | 24337 ft | 456 kts | 154° |
| 2026-04-24 14:16 | 52.34518 | -1.65416 | 24589 ft | 459 kts | 154° |
| 2026-04-24 14:17 | 52.28774 | -1.60671 | 25134 ft | 466 kts | 155° |
| 2026-04-24 14:17 | 52.25864 | -1.58294 | 25378 ft | 470 kts | 156° |
| 2026-04-24 14:17 | 52.20001 | -1.53519 | 25861 ft | 477 kts | 156° |
| 2026-04-24 14:18 | 52.17027 | -1.51089 | 26137 ft | 480 kts | 156° |
| 2026-04-24 14:18 | 52.14039 | -1.48648 | 26441 ft | 481 kts | 156° |
| 2026-04-24 14:18 | 52.11001 | -1.46174 | 26857 ft | 480 kts | 156° |
| 2026-04-24 14:18 | 52.08062 | -1.43788 | 27300 ft | 478 kts | 157° |
| 2026-04-24 14:19 | 52.06047 | -1.42153 | 27571 ft | 478 kts | 157° |
| 2026-04-24 14:19 | 52.02108 | -1.38965 | 27998 ft | 478 kts | 158° |
| 2026-04-24 14:19 | 51.99125 | -1.36556 | 28366 ft | 479 kts | 158° |
| 2026-04-24 14:19 | 51.96143 | -1.34151 | 28746 ft | 479 kts | 158° |
| 2026-04-24 14:20 | 51.93161 | -1.31745 | 29119 ft | 479 kts | 158° |
| 2026-04-24 14:20 | 51.90184 | -1.29346 | 29503 ft | 479 kts | 158° |
| 2026-04-24 14:20 | 51.87201 | -1.26947 | 29884 ft | 478 kts | 158° |
| 2026-04-24 14:20 | 51.84221 | -1.24551 | 30267 ft | 478 kts | 158° |
| 2026-04-24 14:21 | 51.81240 | -1.22155 | 30596 ft | 478 kts | 158° |
| 2026-04-24 14:21 | 51.78261 | -1.19765 | 30896 ft | 477 kts | 158° |
| 2026-04-24 14:21 | 51.75294 | -1.17394 | 31236 ft | 476 kts | 158° |
| 2026-04-24 14:21 | 51.72326 | -1.15031 | 31572 ft | 475 kts | 158° |
| 2026-04-24 14:22 | 51.69373 | -1.12678 | 31923 ft | 473 kts | 158° |
| 2026-04-24 14:22 | 51.66423 | -1.10329 | 32251 ft | 472 kts | 158° |
| 2026-04-24 14:22 | 51.60628 | -1.05382 | 32937 ft | 474 kts | 149° |
| 2026-04-24 14:23 | 51.57936 | -1.02311 | 33263 ft | 474 kts | 148° |
| 2026-04-24 14:23 | 51.55262 | -0.99237 | 33590 ft | 472 kts | 148° |
| 2026-04-24 14:23 | 51.52593 | -0.96182 | 33969 ft | 470 kts | 148° |
| 2026-04-24 14:23 | 51.49933 | -0.93151 | 34300 ft | 469 kts | 148° |
| 2026-04-24 14:24 | 51.47272 | -0.90128 | 34579 ft | 467 kts | 149° |
| 2026-04-24 14:24 | 51.44502 | -0.87483 | 34839 ft | 462 kts | 158° |
| 2026-04-24 14:24 | 51.41560 | -0.85476 | 35087 ft | 459 kts | 162° |
| 2026-04-24 14:24 | 51.38589 | -0.83603 | 35237 ft | 459 kts | 162° |
| 2026-04-24 14:25 | 51.36618 | -0.82355 | 35280 ft | 460 kts | 162° |
| 2026-04-24 14:25 | 51.29670 | -0.77917 | 35275 ft | 459 kts | 161° |
| 2026-04-24 14:26 | 51.23747 | -0.74123 | 35274 ft | 459 kts | 161° |
| 2026-04-24 14:26 | 51.18817 | -0.70993 | 35275 ft | 459 kts | 161° |
| 2026-04-24 14:27 | 51.12892 | -0.67236 | 35272 ft | 459 kts | 161° |
| 2026-04-24 14:27 | 51.06964 | -0.63469 | 35276 ft | 460 kts | 159° |
| 2026-04-24 14:28 | 51.01428 | -0.58276 | 35280 ft | 465 kts | 149° |
| 2026-04-24 14:28 | 50.96068 | -0.52541 | 35285 ft | 465 kts | 149° |
| 2026-04-24 14:29 | 50.90696 | -0.46818 | 35289 ft | 465 kts | 149° |
| 2026-04-24 14:29 | 50.85320 | -0.41125 | 35283 ft | 465 kts | 149° |
| 2026-04-24 14:30 | 50.79948 | -0.35433 | 35288 ft | 465 kts | 149° |
| 2026-04-24 14:30 | 50.74576 | -0.29756 | 35292 ft | 464 kts | 149° |
| 2026-04-24 14:31 | 50.69202 | -0.24109 | 35293 ft | 464 kts | 149° |
| 2026-04-24 14:31 | 50.63829 | -0.18478 | 35285 ft | 464 kts | 149° |
| 2026-04-24 14:32 | 50.58457 | -0.12858 | 35289 ft | 463 kts | 149° |
| 2026-04-24 14:32 | 50.53087 | -0.07253 | 35292 ft | 463 kts | 149° |
| 2026-04-24 14:33 | 50.47712 | -0.01667 | 35295 ft | 463 kts | 149° |
| 2026-04-24 14:33 | 50.42338 | 0.03919 | 35295 ft | 463 kts | 149° |
| 2026-04-24 14:34 | 50.36957 | 0.09485 | 35294 ft | 463 kts | 149° |
| 2026-04-24 14:34 | 50.31743 | 0.15439 | 35293 ft | 465 kts | 144° |
| 2026-04-24 14:35 | 50.26711 | 0.21800 | 35292 ft | 465 kts | 143° |
| 2026-04-24 14:35 | 50.21709 | 0.28220 | 35281 ft | 465 kts | 143° |
| 2026-04-24 14:36 | 50.16684 | 0.34578 | 35275 ft | 466 kts | 143° |
| 2026-04-24 14:36 | 50.11633 | 0.40902 | 35284 ft | 465 kts | 143° |
| 2026-04-24 14:37 | 50.06584 | 0.47209 | 35282 ft | 465 kts | 144° |
| 2026-04-24 14:37 | 50.01565 | 0.53472 | 35282 ft | 466 kts | 144° |
| 2026-04-24 14:38 | 49.96508 | 0.59753 | 35256 ft | 465 kts | 143° |
| 2026-04-24 14:38 | 49.91457 | 0.66000 | 35258 ft | 465 kts | 143° |
| 2026-04-24 14:39 | 49.86405 | 0.72255 | 35257 ft | 464 kts | 143° |
| 2026-04-24 14:39 | 49.81356 | 0.78481 | 35267 ft | 463 kts | 143° |
| 2026-04-24 14:40 | 49.76305 | 0.84697 | 35258 ft | 464 kts | 144° |
| 2026-04-24 14:40 | 49.71253 | 0.90907 | 35257 ft | 464 kts | 143° |
| 2026-04-24 14:41 | 49.66201 | 0.97087 | 35252 ft | 463 kts | 143° |
| 2026-04-24 14:41 | 49.61145 | 1.03237 | 35253 ft | 462 kts | 143° |
| 2026-04-24 14:42 | 49.56099 | 1.09362 | 35251 ft | 462 kts | 143° |
| 2026-04-24 14:42 | 49.51058 | 1.15491 | 35237 ft | 461 kts | 143° |
| 2026-04-24 14:43 | 49.46014 | 1.21610 | 35234 ft | 462 kts | 143° |
| 2026-04-24 14:43 | 49.40957 | 1.27712 | 35237 ft | 463 kts | 143° |
| 2026-04-24 14:44 | 49.35927 | 1.33761 | 35238 ft | 462 kts | 143° |
| 2026-04-24 14:44 | 49.30862 | 1.39839 | 35237 ft | 462 kts | 143° |
| 2026-04-24 14:45 | 49.25797 | 1.45906 | 35230 ft | 463 kts | 142° |
| 2026-04-24 14:45 | 49.20710 | 1.51973 | 35226 ft | 464 kts | 142° |
| 2026-04-24 14:46 | 49.15622 | 1.58044 | 35226 ft | 464 kts | 142° |
| 2026-04-24 14:46 | 49.10531 | 1.64091 | 35227 ft | 463 kts | 142° |
| 2026-04-24 14:47 | 49.05445 | 1.70115 | 35230 ft | 463 kts | 142° |
| 2026-04-24 14:47 | 49.00356 | 1.76121 | 35226 ft | 463 kts | 142° |
| 2026-04-24 14:48 | 48.95272 | 1.82099 | 35235 ft | 461 kts | 142° |
| 2026-04-24 14:48 | 48.90211 | 1.88047 | 35230 ft | 459 kts | 142° |
| 2026-04-24 14:49 | 48.85168 | 1.93972 | 35225 ft | 457 kts | 142° |
| 2026-04-24 14:49 | 48.80142 | 1.99867 | 35219 ft | 457 kts | 142° |
| 2026-04-24 14:50 | 48.75102 | 2.05730 | 35217 ft | 456 kts | 142° |
| 2026-04-24 14:50 | 48.70067 | 2.11585 | 35214 ft | 456 kts | 142° |
| 2026-04-24 14:51 | 48.66644 | 2.15559 | 35213 ft | 456 kts | 142° |
| 2026-04-24 14:51 | 48.64735 | 2.17765 | 35319 ft | 455 kts | 144° |
| 2026-04-24 14:52 | 48.62235 | 2.20644 | 35181 ft | 447 kts | 143° |
| 2026-04-24 14:52 | 48.57339 | 2.26283 | 35169 ft | 441 kts | 143° |
| 2026-04-24 14:53 | 48.52467 | 2.31908 | 35171 ft | 442 kts | 143° |
| 2026-04-24 14:53 | 48.47569 | 2.37555 | 35169 ft | 444 kts | 143° |
| 2026-04-24 14:54 | 48.42642 | 2.43211 | 35172 ft | 445 kts | 143° |
| 2026-04-24 14:54 | 48.37742 | 2.48808 | 35191 ft | 446 kts | 142° |
| 2026-04-24 14:55 | 48.33599 | 2.53545 | 35185 ft | 447 kts | 142° |
| 2026-04-24 14:55 | 48.27841 | 2.60105 | 35188 ft | 447 kts | 143° |
| 2026-04-24 14:56 | 48.22881 | 2.65718 | 35197 ft | 446 kts | 144° |
| 2026-04-24 14:56 | 48.17539 | 2.70385 | 35205 ft | 445 kts | 151° |
| 2026-04-24 14:57 | 48.12083 | 2.74757 | 35201 ft | 444 kts | 151° |
| 2026-04-24 14:57 | 48.06568 | 2.78905 | 35195 ft | 444 kts | 156° |
| 2026-04-24 14:58 | 48.00890 | 2.82523 | 35185 ft | 443 kts | 156° |
| 2026-04-24 14:58 | 47.95219 | 2.86126 | 35197 ft | 443 kts | 156° |
| 2026-04-24 14:59 | 47.89555 | 2.89719 | 35182 ft | 443 kts | 156° |
| 2026-04-24 14:59 | 47.83876 | 2.93310 | 35168 ft | 444 kts | 156° |
| 2026-04-24 15:00 | 47.78191 | 2.96890 | 35182 ft | 443 kts | 156° |
| 2026-04-24 15:00 | 47.72531 | 3.00454 | 35191 ft | 440 kts | 156° |
| 2026-04-24 15:01 | 47.66893 | 3.03999 | 35179 ft | 440 kts | 156° |
| 2026-04-24 15:01 | 47.61256 | 3.07530 | 35173 ft | 440 kts | 156° |
| 2026-04-24 15:02 | 47.55623 | 3.11060 | 35164 ft | 440 kts | 156° |
| 2026-04-24 15:02 | 47.49984 | 3.14577 | 35162 ft | 440 kts | 157° |
| 2026-04-24 15:03 | 47.45298 | 3.17490 | 35156 ft | 440 kts | 157° |
| 2026-04-24 15:03 | 47.38699 | 3.21590 | 35152 ft | 440 kts | 157° |
| 2026-04-24 15:04 | 47.33048 | 3.25089 | 35158 ft | 441 kts | 158° |
| 2026-04-24 15:04 | 47.27430 | 3.28555 | 35147 ft | 441 kts | 158° |
| 2026-04-24 15:05 | 47.21761 | 3.32045 | 35135 ft | 441 kts | 159° |
| 2026-04-24 15:05 | 47.16107 | 3.35522 | 35149 ft | 440 kts | 159° |
| 2026-04-24 15:06 | 47.10474 | 3.38977 | 35157 ft | 438 kts | 159° |
| 2026-04-24 15:06 | 47.04851 | 3.42420 | 35157 ft | 437 kts | 159° |
| 2026-04-24 15:07 | 46.99237 | 3.45847 | 35153 ft | 437 kts | 159° |
| 2026-04-24 15:07 | 46.93632 | 3.49261 | 35140 ft | 436 kts | 159° |
| 2026-04-24 15:08 | 46.88021 | 3.52667 | 35122 ft | 437 kts | 160° |
| 2026-04-24 15:08 | 46.82401 | 3.56078 | 35122 ft | 438 kts | 160° |
| 2026-04-24 15:09 | 46.76789 | 3.59580 | 35124 ft | 440 kts | 154° |
| 2026-04-24 15:09 | 46.74215 | 3.62030 | 35119 ft | 445 kts | 143° |
| 2026-04-24 15:09 | 46.71997 | 3.65185 | 35119 ft | 450 kts | 133° |
| 2026-04-24 15:09 | 46.70221 | 3.68971 | 35118 ft | 455 kts | 121° |
| 2026-04-24 15:10 | 46.68991 | 3.73228 | 35125 ft | 460 kts | 109° |
| 2026-04-24 15:10 | 46.67439 | 3.82311 | 35119 ft | 463 kts | 107° |
| 2026-04-24 15:11 | 46.65889 | 3.91415 | 35116 ft | 463 kts | 107° |
| 2026-04-24 15:11 | 46.64313 | 4.00513 | 35120 ft | 464 kts | 108° |
| 2026-04-24 15:12 | 46.62729 | 4.09609 | 35112 ft | 464 kts | 108° |
| 2026-04-24 15:12 | 46.60360 | 4.23178 | 35139 ft | 463 kts | 108° |
| 2026-04-24 15:13 | 46.58763 | 4.32238 | 35139 ft | 463 kts | 108° |
| 2026-04-24 15:13 | 46.57167 | 4.41297 | 35148 ft | 462 kts | 108° |
| 2026-04-24 15:14 | 46.55836 | 4.48815 | 35142 ft | 462 kts | 108° |
| 2026-04-24 15:14 | 46.54233 | 4.57840 | 35151 ft | 461 kts | 108° |
| 2026-04-24 15:15 | 46.52622 | 4.66841 | 35154 ft | 460 kts | 108° |
| 2026-04-24 15:15 | 46.50991 | 4.75874 | 35158 ft | 459 kts | 108° |
| 2026-04-24 15:16 | 46.49379 | 4.84784 | 35136 ft | 459 kts | 108° |
| 2026-04-24 15:16 | 46.47753 | 4.93724 | 35151 ft | 458 kts | 108° |
| 2026-04-24 15:17 | 46.46121 | 5.02640 | 35155 ft | 457 kts | 108° |
| 2026-04-24 15:17 | 46.44479 | 5.11534 | 35148 ft | 456 kts | 108° |
| 2026-04-24 15:18 | 46.42869 | 5.20294 | 35149 ft | 457 kts | 108° |
| 2026-04-24 15:18 | 46.41211 | 5.29294 | 35155 ft | 456 kts | 108° |
| 2026-04-24 15:19 | 46.39569 | 5.38152 | 35166 ft | 455 kts | 108° |
| 2026-04-24 15:19 | 46.37920 | 5.46984 | 35163 ft | 454 kts | 108° |
| 2026-04-24 15:20 | 46.36274 | 5.55790 | 35160 ft | 453 kts | 108° |
| 2026-04-24 15:20 | 46.34627 | 5.64598 | 35154 ft | 453 kts | 108° |
| 2026-04-24 15:21 | 46.32979 | 5.73386 | 35163 ft | 452 kts | 108° |
| 2026-04-24 15:21 | 46.31457 | 5.81456 | 35161 ft | 451 kts | 108° |
| 2026-04-24 15:22 | 46.29798 | 5.90209 | 35156 ft | 451 kts | 108° |
| 2026-04-24 15:23 | 46.27302 | 6.03268 | 35150 ft | 451 kts | 108° |
| 2026-04-24 15:23 | 46.25105 | 6.11748 | 35154 ft | 446 kts | 122° |
| 2026-04-24 15:23 | 46.23413 | 6.15410 | 35152 ft | 443 kts | 131° |
| 2026-04-24 15:25 | 46.12337 | 6.30688 | 35152 ft | 441 kts | 139° |
| 2026-04-24 15:26 | 46.01069 | 6.45720 | 35134 ft | 443 kts | 138° |
| 2026-04-24 15:27 | 45.87486 | 6.63679 | 35156 ft | 444 kts | 138° |
| 2026-04-24 15:29 | 45.73802 | 6.81629 | 35155 ft | 445 kts | 138° |
| 2026-04-24 15:31 | 45.57764 | 7.02454 | 35165 ft | 445 kts | 138° |
| 2026-04-24 15:32 | 45.49775 | 7.15768 | 35144 ft | 445 kts | 121° |
| 2026-04-24 15:33 | 45.43218 | 7.30748 | 35130 ft | 446 kts | 122° |
| 2026-04-24 15:33 | 45.37253 | 7.40790 | 35121 ft | 446 kts | 140° |
| 2026-04-24 15:34 | 45.32443 | 7.46379 | 35111 ft | 447 kts | 140° |
| 2026-04-24 15:35 | 45.20462 | 7.60349 | 35066 ft | 447 kts | 140° |
| 2026-04-24 15:36 | 45.15650 | 7.65933 | 35071 ft | 447 kts | 140° |
| 2026-04-24 15:36 | 45.08420 | 7.74298 | 35066 ft | 447 kts | 139° |
| 2026-04-24 15:37 | 45.03597 | 7.79861 | 35068 ft | 448 kts | 140° |
| 2026-04-24 15:37 | 44.98762 | 7.85414 | 35074 ft | 448 kts | 140° |
| 2026-04-24 15:38 | 44.93925 | 7.90966 | 35067 ft | 448 kts | 140° |
| 2026-04-24 15:38 | 44.91508 | 7.93744 | 34886 ft | 448 kts | 140° |
| 2026-04-24 15:38 | 44.89090 | 7.96516 | 34662 ft | 448 kts | 139° |
| 2026-04-24 15:39 | 44.86672 | 7.99280 | 34418 ft | 448 kts | 139° |
| 2026-04-24 15:39 | 44.84243 | 8.02054 | 34179 ft | 449 kts | 139° |
| 2026-04-24 15:39 | 44.81815 | 8.04821 | 33929 ft | 450 kts | 139° |
| 2026-04-24 15:39 | 44.79375 | 8.07598 | 33664 ft | 451 kts | 139° |
| 2026-04-24 15:40 | 44.76936 | 8.10374 | 33398 ft | 452 kts | 139° |
| 2026-04-24 15:40 | 44.74490 | 8.13154 | 33131 ft | 452 kts | 139° |
| 2026-04-24 15:40 | 44.72040 | 8.15938 | 32866 ft | 453 kts | 139° |
| 2026-04-24 15:40 | 44.69620 | 8.18690 | 32610 ft | 454 kts | 139° |
| 2026-04-24 15:41 | 44.67133 | 8.21515 | 32355 ft | 455 kts | 139° |
| 2026-04-24 15:41 | 44.64669 | 8.24305 | 32098 ft | 455 kts | 139° |
| 2026-04-24 15:41 | 44.62232 | 8.27058 | 31845 ft | 456 kts | 139° |
| 2026-04-24 15:41 | 44.59757 | 8.29850 | 31598 ft | 457 kts | 139° |
| 2026-04-24 15:42 | 44.57276 | 8.32644 | 31347 ft | 458 kts | 139° |
| 2026-04-24 15:42 | 44.54797 | 8.35434 | 31120 ft | 458 kts | 138° |
| 2026-04-24 15:42 | 44.52309 | 8.38236 | 30876 ft | 459 kts | 138° |
| 2026-04-24 15:42 | 44.49817 | 8.41038 | 30632 ft | 460 kts | 139° |
| 2026-04-24 15:43 | 44.47325 | 8.43837 | 30402 ft | 460 kts | 139° |
| 2026-04-24 15:43 | 44.44822 | 8.46642 | 30166 ft | 461 kts | 139° |
| 2026-04-24 15:43 | 44.42318 | 8.49449 | 29894 ft | 462 kts | 139° |
| 2026-04-24 15:43 | 44.39810 | 8.52259 | 29596 ft | 463 kts | 139° |
| 2026-04-24 15:44 | 44.37294 | 8.55073 | 29346 ft | 463 kts | 139° |
| 2026-04-24 15:44 | 44.34773 | 8.57886 | 29067 ft | 464 kts | 139° |
| 2026-04-24 15:44 | 44.32249 | 8.60699 | 28789 ft | 464 kts | 139° |
| 2026-04-24 15:44 | 44.29722 | 8.63513 | 28524 ft | 465 kts | 139° |
| 2026-04-24 15:45 | 44.27193 | 8.66325 | 28258 ft | 466 kts | 139° |
| 2026-04-24 15:45 | 44.24658 | 8.69144 | 27993 ft | 467 kts | 139° |
| 2026-04-24 15:45 | 44.22116 | 8.71964 | 27744 ft | 467 kts | 139° |
| 2026-04-24 15:45 | 44.19569 | 8.74786 | 27483 ft | 468 kts | 139° |
| 2026-04-24 15:46 | 44.17018 | 8.77614 | 27226 ft | 469 kts | 139° |
| 2026-04-24 15:46 | 44.14463 | 8.80444 | 26971 ft | 470 kts | 139° |
| 2026-04-24 15:46 | 44.11903 | 8.83273 | 26718 ft | 470 kts | 139° |
| 2026-04-24 15:46 | 44.09339 | 8.86107 | 26465 ft | 471 kts | 139° |
| 2026-04-24 15:47 | 44.06768 | 8.88945 | 26214 ft | 472 kts | 139° |
| 2026-04-24 15:47 | 44.04194 | 8.91780 | 25976 ft | 472 kts | 139° |
| 2026-04-24 15:47 | 44.01614 | 8.94617 | 25737 ft | 473 kts | 139° |
| 2026-04-24 15:47 | 43.99035 | 8.97454 | 25489 ft | 474 kts | 139° |
| 2026-04-24 15:48 | 43.96446 | 9.00299 | 25242 ft | 475 kts | 139° |
| 2026-04-24 15:48 | 43.93856 | 9.03146 | 25005 ft | 475 kts | 139° |
| 2026-04-24 15:48 | 43.91286 | 9.06036 | 24768 ft | 476 kts | 138° |
| 2026-04-24 15:48 | 43.88745 | 9.08967 | 24525 ft | 476 kts | 138° |
| 2026-04-24 15:49 | 43.86210 | 9.11931 | 24306 ft | 477 kts | 137° |
| 2026-04-24 15:49 | 43.83682 | 9.14897 | 23347 ft | 478 kts | 137° |
| 2026-04-24 15:49 | 43.81146 | 9.17862 | 22449 ft | 474 kts | 138° |
| 2026-04-24 15:49 | 43.78634 | 9.20777 | 21648 ft | 469 kts | 138° |
| 2026-04-24 15:50 | 43.76141 | 9.23649 | 20806 ft | 464 kts | 138° |
| 2026-04-24 15:50 | 43.73668 | 9.26484 | 19986 ft | 460 kts | 139° |
| 2026-04-24 15:50 | 43.71213 | 9.29293 | 19189 ft | 456 kts | 139° |
| 2026-04-24 15:50 | 43.68777 | 9.32079 | 18388 ft | 453 kts | 139° |
| 2026-04-24 15:51 | 43.66369 | 9.34840 | 17602 ft | 446 kts | 139° |
| 2026-04-24 15:51 | 43.63992 | 9.37568 | 16792 ft | 442 kts | 139° |
| 2026-04-24 15:51 | 43.61642 | 9.40261 | 15998 ft | 437 kts | 139° |
| 2026-04-24 15:51 | 43.59310 | 9.42924 | 15258 ft | 432 kts | 139° |
| 2026-04-24 15:52 | 43.57016 | 9.45533 | 14821 ft | 421 kts | 139° |
| 2026-04-24 15:52 | 43.54863 | 9.48141 | 14707 ft | 403 kts | 131° |
| 2026-04-24 15:52 | 43.53263 | 9.51186 | 14585 ft | 384 kts | 116° |
| 2026-04-24 15:52 | 43.52319 | 9.54517 | 14464 ft | 365 kts | 102° |
| 2026-04-24 15:53 | 43.52007 | 9.57898 | 14348 ft | 348 kts | 88° |
| 2026-04-24 15:53 | 43.52252 | 9.61125 | 14229 ft | 332 kts | 76° |
| 2026-04-24 15:53 | 43.52871 | 9.64119 | 14101 ft | 319 kts | 72° |
| 2026-04-24 15:53 | 43.53492 | 9.66998 | 13937 ft | 309 kts | 72° |
| 2026-04-24 15:54 | 43.54093 | 9.69812 | 13694 ft | 303 kts | 72° |
| 2026-04-24 15:54 | 43.54688 | 9.72594 | 13553 ft | 302 kts | 72° |
| 2026-04-24 15:54 | 43.55272 | 9.75333 | 13342 ft | 295 kts | 72° |
| 2026-04-24 15:54 | 43.55849 | 9.78035 | 12968 ft | 293 kts | 72° |
| 2026-04-24 15:55 | 43.56415 | 9.80688 | 12600 ft | 292 kts | 72° |
| 2026-04-24 15:55 | 43.56986 | 9.83363 | 12244 ft | 290 kts | 72° |
| 2026-04-24 15:55 | 43.57544 | 9.85990 | 12083 ft | 281 kts | 72° |
| 2026-04-24 15:55 | 43.58087 | 9.88552 | 11823 ft | 277 kts | 72° |
| 2026-04-24 15:56 | 43.58622 | 9.91085 | 11504 ft | 275 kts | 72° |
| 2026-04-24 15:56 | 43.59165 | 9.93602 | 11172 ft | 273 kts | 69° |
| 2026-04-24 15:56 | 43.60014 | 9.95910 | 10852 ft | 269 kts | 53° |
| 2026-04-24 15:56 | 43.61271 | 9.97793 | 10514 ft | 266 kts | 38° |
| 2026-04-24 15:57 | 43.62754 | 9.99313 | 10178 ft | 265 kts | 35° |
| 2026-04-24 15:57 | 43.64237 | 10.00814 | 9863 ft | 264 kts | 35° |
| 2026-04-24 15:57 | 43.65212 | 10.01806 | 9684 ft | 261 kts | 35° |
| 2026-04-24 15:57 | 43.67119 | 10.03755 | 9449 ft | 251 kts | 35° |
| 2026-04-24 15:58 | 43.68501 | 10.05172 | 9329 ft | 245 kts | 35° |
| 2026-04-24 15:58 | 43.69874 | 10.06583 | 9219 ft | 246 kts | 35° |
| 2026-04-24 15:58 | 43.71180 | 10.08105 | 9081 ft | 247 kts | 51° |
| 2026-04-24 15:58 | 43.71849 | 10.10276 | 8964 ft | 251 kts | 83° |
| 2026-04-24 15:59 | 43.71560 | 10.12641 | 8811 ft | 255 kts | 117° |
| 2026-04-24 15:59 | 43.70549 | 10.14679 | 8687 ft | 258 kts | 125° |
| 2026-04-24 15:59 | 43.69469 | 10.16662 | 8535 ft | 258 kts | 126° |
| 2026-04-24 15:59 | 43.68254 | 10.18479 | 8390 ft | 259 kts | 147° |
| 2026-04-24 16:00 | 43.67170 | 10.19131 | 8300 ft | 258 kts | 170° |
| 2026-04-24 16:00 | 43.65415 | 10.18970 | 8171 ft | 255 kts | 204° |
| 2026-04-24 16:00 | 43.63924 | 10.17689 | 8040 ft | 254 kts | 219° |
| 2026-04-24 16:00 | 43.62508 | 10.16235 | 7912 ft | 253 kts | 219° |
| 2026-04-24 16:01 | 43.60641 | 10.14311 | 7738 ft | 253 kts | 219° |
| 2026-04-24 16:01 | 43.59233 | 10.12865 | 7602 ft | 252 kts | 219° |
| 2026-04-24 16:01 | 43.57844 | 10.11441 | 7497 ft | 244 kts | 218° |
| 2026-04-24 16:01 | 43.56487 | 10.10055 | 7366 ft | 242 kts | 218° |
| 2026-04-24 16:02 | 43.55577 | 10.09125 | 7293 ft | 241 kts | 218° |
| 2026-04-24 16:02 | 43.54235 | 10.07753 | 7160 ft | 240 kts | 218° |
| 2026-04-24 16:02 | 43.52898 | 10.06384 | 7011 ft | 239 kts | 218° |
| 2026-04-24 16:02 | 43.51584 | 10.05041 | 6801 ft | 237 kts | 218° |
| 2026-04-24 16:03 | 43.50261 | 10.03694 | 6609 ft | 236 kts | 218° |
| 2026-04-24 16:03 | 43.48902 | 10.02395 | 6333 ft | 235 kts | 208° |
| 2026-04-24 16:03 | 43.47343 | 10.02005 | 6102 ft | 224 kts | 175° |
| 2026-04-24 16:03 | 43.45966 | 10.02740 | 5884 ft | 211 kts | 143° |
| 2026-04-24 16:04 | 43.45030 | 10.04189 | 5684 ft | 197 kts | 126° |
| 2026-04-24 16:04 | 43.44237 | 10.05657 | 5524 ft | 186 kts | 126° |
| 2026-04-24 16:04 | 43.43481 | 10.07048 | 5370 ft | 179 kts | 126° |
| 2026-04-24 16:04 | 43.42741 | 10.08414 | 5226 ft | 178 kts | 124° |
| 2026-04-24 16:05 | 43.42318 | 10.11515 | 4911 ft | 161 kts | 75° |
| 2026-04-24 16:05 | 43.42764 | 10.12901 | 4774 ft | 158 kts | 52° |
| 2026-04-24 16:06 | 43.44408 | 10.14835 | 4523 ft | 156 kts | 34° |
| 2026-04-24 16:06 | 43.45277 | 10.15721 | 4372 ft | 156 kts | 34° |
| 2026-04-24 16:06 | 43.47018 | 10.17500 | 4122 ft | 156 kts | 34° |
| 2026-04-24 16:07 | 43.47891 | 10.18392 | 3991 ft | 156 kts | 34° |
| 2026-04-24 16:07 | 43.48762 | 10.19283 | 3852 ft | 156 kts | 34° |
| 2026-04-24 16:07 | 43.50507 | 10.21067 | 3573 ft | 157 kts | 32° |
| 2026-04-24 16:08 | 43.51383 | 10.21964 | 3439 ft | 157 kts | 32° |
| 2026-04-24 16:08 | 43.53142 | 10.23765 | 3156 ft | 158 kts | 32° |
| 2026-04-24 16:09 | 43.54904 | 10.25571 | 2918 ft | 157 kts | 32° |
| 2026-04-24 16:09 | 43.55788 | 10.26477 | 2807 ft | 158 kts | 32° |
| 2026-04-24 16:09 | 43.56665 | 10.27377 | 2639 ft | 157 kts | 31° |
| 2026-04-24 16:09 | 43.57542 | 10.28277 | 2450 ft | 157 kts | 32° |
| 2026-04-24 16:10 | 43.60123 | 10.30928 | 1838 ft | 151 kts | 32° |
| 2026-04-24 16:11 | 43.61829 | 10.32682 | 1425 ft | 153 kts | 30° |
| 2026-04-24 16:11 | 43.62683 | 10.33560 | 1217 ft | 152 kts | 31° |
| 2026-04-24 16:11 | 43.63535 | 10.34436 | 1015 ft | 153 kts | 32° |
| 2026-04-24 16:12 | 43.65224 | 10.36176 | 594 ft | 149 kts | 34° |
| 2026-04-24 16:12 | 43.66034 | 10.37009 | 390 ft | 147 kts | 31° |
| 2026-04-24 16:12 | 43.67691 | 10.38721 | 28 ft | 142 kts | 32° |
| 2026-04-24 16:13 | 43.68346 | 10.39396 | 13 ft | 81 kts | 41° |
| 2026-04-24 16:13 | 43.68937 | 10.39999 | 10 ft | 35 kts | 38° |
| 2026-04-24 16:14 | 43.69246 | 10.40301 | 10 ft | 15 kts | 7° |
| 2026-04-24 16:14 | 43.69317 | 10.40223 | 16 ft | 12 kts | 304° |
| 2026-04-24 16:14 | 43.69487 | 10.40085 | 16 ft | 20 kts | 350° |
| 2026-04-24 16:15 | 43.69581 | 10.40065 | 15 ft | 18 kts | 351° |
| 2026-04-24 16:15 | 43.69748 | 10.40030 | 14 ft | 3 kts | 6° |
| 2026-04-24 16:16 | 43.69752 | 10.40030 | 14 ft | 0 kts | 5° |